Patagonia 100 — ZDPD4 — position and weather

sailwx.info

Track history (hours):
 
Tides and Currents Weather Stations Pressure Air Temp Water Temp Dewpoint Dewpoint Depression Visibility Wind Speed Wind Dir Waves Ship Positions

Patagonia 100

Last reported at 2017-Sep-21 02:31 UTC. Time now 2017-Sep-21 18:03 UTC.
Position N 36°10' W 005°25'.

Length 80 m; draft 5.4 m.

Type: Tanker. MMSI: 236659000.

Date/timePositionNaut miles runAvg speedWind from/ knotsBaromVisibWave heightAir tempDewpointWater temp
2017-Sep-21 02:31N 36°10' W 005°25'1 4.0
2017-Sep-21 02:17N 36°10' W 005°26'0 1.0
2017-Sep-21 01:59N 36°10' W 005°26'0 0.0
2017-Sep-21 01:11N 36°10' W 005°26'0 0.0
2017-Sep-21 00:59N 36°10' W 005°26'0 0.1
2017-Sep-21 00:29N 36°10' W 005°26'0 0.0
2017-Sep-20 23:56N 36°10' W 005°26'0 0.1
2017-Sep-20 23:30N 36°10' W 005°26'1 2.5
2017-Sep-20 22:59N 36°08' W 005°25'2 2.8
2017-Sep-20 22:24N 36°07' W 005°25'1 0.2
2017-Sep-20 19:46N 36°07' W 005°25'0 0.0
2017-Sep-20 19:28N 36°07' W 005°25'2 0.1
2017-Sep-20 03:55N 36°05' W 005°24'0 0.2
2017-Sep-20 03:28N 36°05' W 005°24'0 0.1
2017-Sep-20 02:59N 36°05' W 005°24'0 0.3
2017-Sep-20 02:30N 36°06' W 005°24'0 0.3
2017-Sep-20 02:00N 36°06' W 005°24'2 3.0
2017-Sep-20 01:27N 36°07' W 005°25'1 0.2
2017-Sep-19 19:25N 36°08' W 005°26'0 0.0
2017-Sep-19 18:36N 36°08' W 005°26'0 0.0
2017-Sep-19 18:30N 36°08' W 005°26'0 0.0
2017-Sep-19 17:56N 36°08' W 005°26'0 0.0
2017-Sep-19 17:30N 36°08' W 005°26'0 0.4
2017-Sep-19 17:00N 36°08' W 005°26'3 2.7
2017-Sep-19 15:47N 36°05' W 005°24'0 0.0
2017-Sep-19 13:52N 36°05' W 005°24'0 0.0
2017-Sep-19 13:19N 36°05' W 005°24'0 0.0
2017-Sep-19 12:58N 36°05' W 005°24'0 0.0
2017-Sep-19 11:49N 36°05' W 005°24'1 0.1
2017-Sep-19 01:25N 36°06' W 005°24'1 2.3
2017-Sep-19 00:56N 36°05' W 005°25'0 0.1
2017-Sep-19 00:29N 36°05' W 005°25'0 0.2
2017-Sep-18 23:56N 36°05' W 005°25'0 0.1
2017-Sep-18 21:26N 36°05' W 005°25'3 0.1
2017-Sep-17 23:29N 36°08' W 005°26'0 0.0
2017-Sep-17 22:52N 36°08' W 005°26'0 0.0
2017-Sep-17 20:13N 36°08' W 005°26'0 0.0
2017-Sep-17 19:54N 36°08' W 005°26'0 0.0
2017-Sep-17 19:20N 36°08' W 005°26'0 0.0
2017-Sep-17 18:58N 36°08' W 005°26'0 0.0
2017-Sep-17 18:29N 36°08' W 005°26'0 0.0
2017-Sep-17 18:01N 36°08' W 005°26'0 0.0
2017-Sep-17 17:30N 36°08' W 005°26'0 0.0
2017-Sep-17 16:59N 36°08' W 005°26'0 0.3
2017-Sep-17 16:30N 36°08' W 005°26'3 5.1
2017-Sep-17 15:52N 36°05' W 005°24'0 0.1
2017-Sep-17 14:32N 36°05' W 005°24'0 0.3
2017-Sep-17 14:11N 36°05' W 005°24'0 0.2
2017-Sep-17 13:56N 36°05' W 005°24'0 0.1
2017-Sep-17 13:29N 36°05' W 005°24'0 0.1
2017-Sep-17 12:59N 36°05' W 005°24'0 0.0
2017-Sep-17 12:26N 36°05' W 005°24'0 0.0
2017-Sep-17 11:50N 36°05' W 005°24'0 0.0
2017-Sep-17 09:32N 36°05' W 005°24'0 0.4
2017-Sep-17 09:29N 36°05' W 005°24'1 0.1
2017-Sep-17 00:44N 36°06' W 005°25'0 0.1
2017-Sep-17 00:20N 36°06' W 005°25'0 0.0
2017-Sep-16 23:05N 36°06' W 005°25'0 0.1
2017-Sep-16 22:53N 36°06' W 005°25'0 0.0
2017-Sep-16 21:05N 36°06' W 005°25'0 0.1
2017-Sep-16 20:47N 36°06' W 005°25'1 4.1
2017-Sep-16 20:30N 36°07' W 005°25'0 0.0
2017-Sep-16 02:30N 36°08' W 005°25'0 0.0
2017-Sep-16 00:03N 36°08' W 005°25'0 0.0
2017-Sep-16 00:01N 36°08' W 005°25'3 0.1
2017-Sep-14 21:11N 36°05' W 005°24'0 0.1
2017-Sep-14 20:59N 36°05' W 005°24'0 0.2
2017-Sep-14 20:29N 36°05' W 005°24'0 0.1
2017-Sep-14 19:35N 36°05' W 005°24'0 0.1
2017-Sep-14 19:26N 36°05' W 005°24'0 0.0
2017-Sep-14 18:59N 36°05' W 005°24'0 0.0
2017-Sep-14 17:20N 36°05' W 005°24'0 0.0
2017-Sep-14 16:59N 36°05' W 005°24'0 0.0
2017-Sep-14 16:02N 36°05' W 005°24'0 0.1
2017-Sep-14 15:56N 36°05' W 005°24'1 1.3
2017-Sep-14 15:30N 36°05' W 005°24'3 0.3
2017-Sep-14 03:10N 36°08' W 005°26'0 0.0
2017-Sep-14 02:52N 36°08' W 005°26'1 0.0
2017-Sep-13 04:56N 36°08' W 005°25'0 0.0
2017-Sep-13 04:26N 36°08' W 005°25'0 0.0
2017-Sep-13 03:59N 36°08' W 005°25'0 0.0
2017-Sep-13 02:41N 36°08' W 005°25'0 0.0
2017-Sep-13 00:53N 36°08' W 005°25'0 0.0
2017-Sep-13 00:26N 36°08' W 005°25'0 0.0
2017-Sep-13 00:00N 36°08' W 005°25'0 0.2
2017-Sep-12 23:31N 36°08' W 005°25'1 2.9
2017-Sep-12 23:00N 36°09' W 005°26'0 0.1
2017-Sep-12 19:15N 36°09' W 005°26'2 5.0
2017-Sep-12 18:50N 36°08' W 005°25'0 0.4
2017-Sep-12 18:25N 36°08' W 005°25'0 0.0
2017-Sep-12 17:58N 36°08' W 005°25'0 0.1
2017-Sep-12 17:28N 36°08' W 005°25'0 0.0
2017-Sep-12 16:43N 36°08' W 005°25'0 0.0
2017-Sep-12 16:28N 36°08' W 005°25'0 0.0
2017-Sep-12 15:55N 36°08' W 005°25'0 0.0
2017-Sep-12 15:24N 36°08' W 005°25'0 0.3
2017-Sep-12 15:00N 36°08' W 005°25'1 1.9
2017-Sep-12 14:25N 36°07' W 005°25'1 2.1
2017-Sep-12 14:00N 36°08' W 005°25'1 1.7
2017-Sep-12 13:28N 36°08' W 005°26'0 0.0
2017-Sep-12 12:58N 36°08' W 005°26'0 0.0
2017-Sep-12 11:55N 36°08' W 005°26'0 0.0
2017-Sep-12 11:28N 36°08' W 005°26'0 0.0
2017-Sep-12 10:58N 36°08' W 005°26'0 0.0
2017-Sep-12 09:52N 36°08' W 005°26'0 0.0
2017-Sep-12 09:28N 36°08' W 005°26'0 0.0
2017-Sep-12 08:58N 36°08' W 005°26'0 0.0
2017-Sep-12 08:22N 36°08' W 005°26'0 0.0
2017-Sep-12 07:58N 36°08' W 005°26'0 0.0
2017-Sep-12 07:28N 36°08' W 005°26'0 0.0
2017-Sep-12 06:58N 36°08' W 005°26'0 0.0
2017-Sep-12 06:28N 36°08' W 005°26'0 0.0
2017-Sep-12 05:55N 36°08' W 005°26'0 0.0
2017-Sep-12 05:28N 36°08' W 005°26'0 0.0
2017-Sep-12 04:58N 36°08' W 005°26'0 0.0
2017-Sep-12 04:28N 36°08' W 005°26'0 0.0
2017-Sep-12 03:58N 36°08' W 005°26'0 0.0
2017-Sep-12 03:28N 36°08' W 005°26'0 0.0
2017-Sep-12 02:55N 36°08' W 005°26'0 0.0
2017-Sep-12 02:28N 36°08' W 005°26'0 0.0
2017-Sep-12 02:00N 36°08' W 005°26'0 0.5
2017-Sep-12 01:30N 36°08' W 005°25'1 1.0
2017-Sep-12 00:53N 36°08' W 005°26'0 0.0
2017-Sep-12 00:02N 36°08' W 005°26'0 0.0
2017-Sep-11 23:53N 36°08' W 005°26'0 0.0
2017-Sep-11 23:17N 36°08' W 005°26'0 0.0
2017-Sep-11 22:59N 36°08' W 005°26'0 0.0
2017-Sep-11 22:14N 36°08' W 005°26'0 0.0
2017-Sep-11 21:59N 36°08' W 005°26'0 0.0
2017-Sep-11 21:29N 36°08' W 005°26'0 0.0
2017-Sep-11 20:56N 36°08' W 005°26'0 0.0
2017-Sep-11 20:26N 36°08' W 005°26'0 0.0
2017-Sep-11 19:59N 36°08' W 005°26'0 0.0
2017-Sep-11 19:26N 36°08' W 005°26'1 0.2
2017-Sep-11 16:42N 36°09' W 005°26'1 5.0
2017-Sep-11 16:30N 36°09' W 005°25'1 0.4
2017-Sep-11 13:41N 36°10' W 005°24'2 0.2
2017-Sep-11 02:37N 36°08' W 005°24'  
Track history (hours):
 
Tides and Currents Weather Stations Pressure Air Temp Water Temp Dewpoint Dewpoint Depression Visibility Wind Speed Wind Dir Waves Ship Positions

Patagonia 100

Last reported at 2017-Sep-21 02:31 UTC. Time now 2017-Sep-21 18:03 UTC.
Position N 36°10' W 005°25'.

Length 80 m; draft 5.4 m.

Type: Tanker. MMSI: 236659000.

Date/timePositionNaut miles runAvg speedWind from/ knotsBaromVisibWave heightAir tempDewpointWater temp
2017-Sep-21 02:31N 36°10' W 005°25'1 4.0
2017-Sep-21 02:17N 36°10' W 005°26'0 1.0
2017-Sep-21 01:59N 36°10' W 005°26'0 0.0
2017-Sep-21 01:11N 36°10' W 005°26'0 0.0
2017-Sep-21 00:59N 36°10' W 005°26'0 0.1
2017-Sep-21 00:29N 36°10' W 005°26'0 0.0
2017-Sep-20 23:56N 36°10' W 005°26'0 0.1
2017-Sep-20 23:30N 36°10' W 005°26'1 2.5
2017-Sep-20 22:59N 36°08' W 005°25'2 2.8
2017-Sep-20 22:24N 36°07' W 005°25'1 0.2
2017-Sep-20 19:46N 36°07' W 005°25'0 0.0
2017-Sep-20 19:28N 36°07' W 005°25'2 0.1
2017-Sep-20 03:55N 36°05' W 005°24'0 0.2
2017-Sep-20 03:28N 36°05' W 005°24'0 0.1
2017-Sep-20 02:59N 36°05' W 005°24'0 0.3
2017-Sep-20 02:30N 36°06' W 005°24'0 0.3
2017-Sep-20 02:00N 36°06' W 005°24'2 3.0
2017-Sep-20 01:27N 36°07' W 005°25'1 0.2
2017-Sep-19 19:25N 36°08' W 005°26'0 0.0
2017-Sep-19 18:36N 36°08' W 005°26'0 0.0
2017-Sep-19 18:30N 36°08' W 005°26'0 0.0
2017-Sep-19 17:56N 36°08' W 005°26'0 0.0
2017-Sep-19 17:30N 36°08' W 005°26'0 0.4
2017-Sep-19 17:00N 36°08' W 005°26'3 2.7
2017-Sep-19 15:47N 36°05' W 005°24'0 0.0
2017-Sep-19 13:52N 36°05' W 005°24'0 0.0
2017-Sep-19 13:19N 36°05' W 005°24'0 0.0
2017-Sep-19 12:58N 36°05' W 005°24'0 0.0
2017-Sep-19 11:49N 36°05' W 005°24'1 0.1
2017-Sep-19 01:25N 36°06' W 005°24'1 2.3
2017-Sep-19 00:56N 36°05' W 005°25'0 0.1
2017-Sep-19 00:29N 36°05' W 005°25'0 0.2
2017-Sep-18 23:56N 36°05' W 005°25'0 0.1
2017-Sep-18 21:26N 36°05' W 005°25'3 0.1
2017-Sep-17 23:29N 36°08' W 005°26'0 0.0
2017-Sep-17 22:52N 36°08' W 005°26'0 0.0
2017-Sep-17 20:13N 36°08' W 005°26'0 0.0
2017-Sep-17 19:54N 36°08' W 005°26'0 0.0
2017-Sep-17 19:20N 36°08' W 005°26'0 0.0
2017-Sep-17 18:58N 36°08' W 005°26'0 0.0
2017-Sep-17 18:29N 36°08' W 005°26'0 0.0
2017-Sep-17 18:01N 36°08' W 005°26'0 0.0
2017-Sep-17 17:30N 36°08' W 005°26'0 0.0
2017-Sep-17 16:59N 36°08' W 005°26'0 0.3
2017-Sep-17 16:30N 36°08' W 005°26'3 5.1
2017-Sep-17 15:52N 36°05' W 005°24'0 0.1
2017-Sep-17 14:32N 36°05' W 005°24'0 0.3
2017-Sep-17 14:11N 36°05' W 005°24'0 0.2
2017-Sep-17 13:56N 36°05' W 005°24'0 0.1
2017-Sep-17 13:29N 36°05' W 005°24'0 0.1
2017-Sep-17 12:59N 36°05' W 005°24'0 0.0
2017-Sep-17 12:26N 36°05' W 005°24'0 0.0
2017-Sep-17 11:50N 36°05' W 005°24'0 0.0
2017-Sep-17 09:32N 36°05' W 005°24'0 0.4
2017-Sep-17 09:29N 36°05' W 005°24'1 0.1
2017-Sep-17 00:44N 36°06' W 005°25'0 0.1
2017-Sep-17 00:20N 36°06' W 005°25'0 0.0
2017-Sep-16 23:05N 36°06' W 005°25'0 0.1
2017-Sep-16 22:53N 36°06' W 005°25'0 0.0
2017-Sep-16 21:05N 36°06' W 005°25'0 0.1
2017-Sep-16 20:47N 36°06' W 005°25'1 4.1
2017-Sep-16 20:30N 36°07' W 005°25'0 0.0
2017-Sep-16 02:30N 36°08' W 005°25'0 0.0
2017-Sep-16 00:03N 36°08' W 005°25'0 0.0
2017-Sep-16 00:01N 36°08' W 005°25'3 0.1
2017-Sep-14 21:11N 36°05' W 005°24'0 0.1
2017-Sep-14 20:59N 36°05' W 005°24'0 0.2
2017-Sep-14 20:29N 36°05' W 005°24'0 0.1
2017-Sep-14 19:35N 36°05' W 005°24'0 0.1
2017-Sep-14 19:26N 36°05' W 005°24'0 0.0
2017-Sep-14 18:59N 36°05' W 005°24'0 0.0
2017-Sep-14 17:20N 36°05' W 005°24'0 0.0
2017-Sep-14 16:59N 36°05' W 005°24'0 0.0
2017-Sep-14 16:02N 36°05' W 005°24'0 0.1
2017-Sep-14 15:56N 36°05' W 005°24'1 1.3
2017-Sep-14 15:30N 36°05' W 005°24'3 0.3
2017-Sep-14 03:10N 36°08' W 005°26'0 0.0
2017-Sep-14 02:52N 36°08' W 005°26'1 0.0
2017-Sep-13 04:56N 36°08' W 005°25'0 0.0
2017-Sep-13 04:26N 36°08' W 005°25'0 0.0
2017-Sep-13 03:59N 36°08' W 005°25'0 0.0
2017-Sep-13 02:41N 36°08' W 005°25'0 0.0
2017-Sep-13 00:53N 36°08' W 005°25'0 0.0
2017-Sep-13 00:26N 36°08' W 005°25'0 0.0
2017-Sep-13 00:00N 36°08' W 005°25'0 0.2
2017-Sep-12 23:31N 36°08' W 005°25'1 2.9
2017-Sep-12 23:00N 36°09' W 005°26'0 0.1
2017-Sep-12 19:15N 36°09' W 005°26'2 5.0
2017-Sep-12 18:50N 36°08' W 005°25'0 0.4
2017-Sep-12 18:25N 36°08' W 005°25'0 0.0
2017-Sep-12 17:58N 36°08' W 005°25'0 0.1
2017-Sep-12 17:28N 36°08' W 005°25'0 0.0
2017-Sep-12 16:43N 36°08' W 005°25'0 0.0
2017-Sep-12 16:28N 36°08' W 005°25'0 0.0
2017-Sep-12 15:55N 36°08' W 005°25'0 0.0
2017-Sep-12 15:24N 36°08' W 005°25'0 0.3
2017-Sep-12 15:00N 36°08' W 005°25'1 1.9
2017-Sep-12 14:25N 36°07' W 005°25'1 2.1
2017-Sep-12 14:00N 36°08' W 005°25'1 1.7
2017-Sep-12 13:28N 36°08' W 005°26'0 0.0
2017-Sep-12 12:58N 36°08' W 005°26'0 0.0
2017-Sep-12 11:55N 36°08' W 005°26'0 0.0
2017-Sep-12 11:28N 36°08' W 005°26'0 0.0
2017-Sep-12 10:58N 36°08' W 005°26'0 0.0
2017-Sep-12 09:52N 36°08' W 005°26'0 0.0
2017-Sep-12 09:28N 36°08' W 005°26'0 0.0
2017-Sep-12 08:58N 36°08' W 005°26'0 0.0
2017-Sep-12 08:22N 36°08' W 005°26'0 0.0
2017-Sep-12 07:58N 36°08' W 005°26'0 0.0
2017-Sep-12 07:28N 36°08' W 005°26'0 0.0
2017-Sep-12 06:58N 36°08' W 005°26'0 0.0
2017-Sep-12 06:28N 36°08' W 005°26'0 0.0
2017-Sep-12 05:55N 36°08' W 005°26'0 0.0
2017-Sep-12 05:28N 36°08' W 005°26'0 0.0
2017-Sep-12 04:58N 36°08' W 005°26'0 0.0
2017-Sep-12 04:28N 36°08' W 005°26'0 0.0
2017-Sep-12 03:58N 36°08' W 005°26'0 0.0
2017-Sep-12 03:28N 36°08' W 005°26'0 0.0
2017-Sep-12 02:55N 36°08' W 005°26'0 0.0
2017-Sep-12 02:28N 36°08' W 005°26'0 0.0
2017-Sep-12 02:00N 36°08' W 005°26'0 0.5
2017-Sep-12 01:30N 36°08' W 005°25'1 1.0
2017-Sep-12 00:53N 36°08' W 005°26'0 0.0
2017-Sep-12 00:02N 36°08' W 005°26'0 0.0
2017-Sep-11 23:53N 36°08' W 005°26'0 0.0
2017-Sep-11 23:17N 36°08' W 005°26'0 0.0
2017-Sep-11 22:59N 36°08' W 005°26'0 0.0
2017-Sep-11 22:14N 36°08' W 005°26'0 0.0
2017-Sep-11 21:59N 36°08' W 005°26'0 0.0
2017-Sep-11 21:29N 36°08' W 005°26'0 0.0
2017-Sep-11 20:56N 36°08' W 005°26'0 0.0
2017-Sep-11 20:26N 36°08' W 005°26'0 0.0
2017-Sep-11 19:59N 36°08' W 005°26'0 0.0
2017-Sep-11 19:26N 36°08' W 005°26'1 0.2
2017-Sep-11 16:42N 36°09' W 005°26'1 5.0
2017-Sep-11 16:30N 36°09' W 005°25'1 0.4
2017-Sep-11 13:41N 36°10' W 005°24'2 0.2
2017-Sep-11 02:37N 36°08' W 005°24'  

Dump ship's entire track history